Time,TemperatureF,DewpointF,PressureIn,WindDirection,WindDirectionDegrees,WindSpeedMPH,WindSpeedGustMPH,Humidity,HourlyPrecipIn,Conditions,Clouds,dailyrainin,SoftwareType,DateUTC
2013-06-15 00:02:00,76.0,71.0,-100.00,ENE,68,10.0,-999.0,83,-99.99,,,-99.99,,2013-06-15 05:02:00,
2013-06-15 00:12:00,76.0,71.0,-100.00,ENE,68,10.0,-999.0,83,-99.99,,,-99.99,,2013-06-15 05:12:00,
2013-06-15 00:22:00,78.0,70.0,-100.00,ENE,68,7.0,-999.0,76,-99.99,,,-99.99,,2013-06-15 05:22:00,
2013-06-15 00:34:00,78.0,70.0,-100.00,East,90,7.0,-999.0,75,-99.99,,,-99.99,,2013-06-15 05:34:00,
2013-06-15 00:42:00,78.0,70.0,-100.00,East,90,7.0,-999.0,75,-99.99,,,-99.99,,2013-06-15 05:42:00,
2013-06-15 01:12:00,80.0,68.0,-100.00,ESE,113,6.0,-999.0,68,-99.99,,,-99.99,,2013-06-15 06:12:00,
2013-06-15 01:24:00,80.0,68.0,-100.00,ESE,113,6.0,-999.0,68,-99.99,,,-99.99,,2013-06-15 06:24:00,
2013-06-15 01:33:00,80.0,72.0,-100.00,SE,135,9.0,-999.0,75,-99.99,,,-99.99,,2013-06-15 06:33:00,
2013-06-15 01:43:00,80.0,72.0,-100.00,SE,135,9.0,-999.0,75,-99.99,,,-99.99,,2013-06-15 06:43:00,
2013-06-15 01:53:00,80.0,73.0,-100.00,SE,135,12.0,-999.0,78,-99.99,,,-99.99,,2013-06-15 06:53:00,
2013-06-15 02:01:00,80.0,73.0,-100.00,SE,135,11.0,-999.0,79,-99.99,,,-99.99,,2013-06-15 07:01:00,
2013-06-15 02:11:00,80.0,73.0,-100.00,SE,135,11.0,-999.0,79,-99.99,,,-99.99,,2013-06-15 07:11:00,
2013-06-15 02:23:00,80.0,72.0,-100.00,SE,135,11.0,-999.0,78,-99.99,,,-99.99,,2013-06-15 07:23:00,
2013-06-15 02:33:00,78.0,72.0,-100.00,SE,135,10.0,-999.0,80,-99.99,,,-99.99,,2013-06-15 07:33:00,
2013-06-15 02:43:00,78.0,72.0,-100.00,SE,135,10.0,-999.0,80,-99.99,,,-99.99,,2013-06-15 07:43:00,
2013-06-15 02:53:00,78.0,72.0,-100.00,ESE,113,10.0,-999.0,80,-99.99,,,-99.99,,2013-06-15 07:53:00,
2013-06-15 03:02:00,78.0,72.0,-100.00,SE,135,11.0,-999.0,81,-99.99,,,-99.99,,2013-06-15 08:02:00,
2013-06-15 03:11:00,78.0,72.0,-100.00,SE,135,11.0,-999.0,81,-99.99,,,-99.99,,2013-06-15 08:11:00,
2013-06-15 03:22:00,78.0,72.0,-100.00,SE,135,9.0,-999.0,82,-99.99,,,-99.99,,2013-06-15 08:22:00,
2013-06-15 03:33:00,78.0,72.0,-100.00,ESE,113,10.0,-999.0,83,-99.99,,,-99.99,,2013-06-15 08:33:00,
2013-06-15 03:42:00,78.0,72.0,-100.00,ESE,113,10.0,-999.0,83,-99.99,,,-99.99,,2013-06-15 08:42:00,
2013-06-15 03:53:00,78.0,73.0,-100.00,ESE,113,6.0,-999.0,85,-99.99,,,-99.99,,2013-06-15 08:53:00,
2013-06-15 04:02:00,78.0,73.0,-100.00,ESE,113,6.0,-999.0,86,-99.99,,,-99.99,,2013-06-15 09:02:00,
2013-06-15 04:12:00,78.0,73.0,-100.00,ESE,113,6.0,-999.0,86,-99.99,,,-99.99,,2013-06-15 09:12:00,
2013-06-15 04:22:00,78.0,73.0,-100.00,SE,135,7.0,-999.0,86,-99.99,,,-99.99,,2013-06-15 09:22:00,
2013-06-15 04:33:00,78.0,74.0,-100.00,ESE,113,6.0,-999.0,87,-99.99,,,-99.99,,2013-06-15 09:33:00,
2013-06-15 04:43:00,78.0,74.0,-100.00,ESE,113,6.0,-999.0,87,-99.99,,,-99.99,,2013-06-15 09:43:00,
2013-06-15 04:52:00,78.0,74.0,-100.00,SE,135,8.0,-999.0,87,-99.99,,,-99.99,,2013-06-15 09:52:00,
2013-06-15 05:02:00,78.0,75.0,-100.00,SE,135,5.0,-999.0,88,-99.99,,,-99.99,,2013-06-15 10:02:00,
2013-06-15 05:11:00,78.0,75.0,-100.00,SE,135,5.0,-999.0,88,-99.99,,,-99.99,,2013-06-15 10:11:00,
2013-06-15 05:23:00,78.0,74.0,-100.00,East,90,7.0,-999.0,89,-99.99,,,-99.99,,2013-06-15 10:23:00,
2013-06-15 05:33:00,77.0,74.0,-100.00,East,90,6.0,-999.0,90,-99.99,,,-99.99,,2013-06-15 10:33:00,
2013-06-15 05:43:00,77.0,74.0,-100.00,East,90,6.0,-999.0,90,-99.99,,,-99.99,,2013-06-15 10:43:00,
2013-06-15 05:53:00,77.0,74.0,-100.00,East,90,8.0,-999.0,90,-99.99,,,-99.99,,2013-06-15 10:53:00,
2013-06-15 06:02:00,77.0,74.0,-100.00,ESE,113,7.0,-999.0,90,-99.99,,,-99.99,,2013-06-15 11:02:00,
2013-06-15 06:11:00,78.0,74.0,-100.00,SE,135,7.0,-999.0,90,-99.99,,,-99.99,,2013-06-15 11:11:00,
2013-06-15 06:22:00,78.0,74.0,-100.00,SE,135,7.0,-999.0,90,-99.99,,,-99.99,,2013-06-15 11:22:00,
2013-06-15 06:33:00,78.0,74.0,-100.00,SE,135,7.0,-999.0,89,-99.99,,,-99.99,,2013-06-15 11:33:00,
2013-06-15 06:43:00,78.0,74.0,-100.00,SE,135,7.0,-999.0,89,-99.99,,,-99.99,,2013-06-15 11:43:00,
2013-06-15 06:53:00,78.0,74.0,-100.00,SE,135,8.0,-999.0,88,-99.99,,,-99.99,,2013-06-15 11:53:00,
2013-06-15 07:01:00,78.0,74.0,-100.00,SSE,158,5.0,-999.0,88,-99.99,,,-99.99,,2013-06-15 12:01:00,
2013-06-15 07:11:00,78.0,74.0,-100.00,SSE,158,5.0,-999.0,88,-99.99,,,-99.99,,2013-06-15 12:11:00,
2013-06-15 07:52:00,79.0,72.0,-100.00,SW,225,5.0,-999.0,78,-99.99,,,-99.99,,2013-06-15 12:52:00,
2013-06-15 08:11:00,83.0,63.0,-100.00,SW,225,19.0,-999.0,51,-99.99,,,-99.99,,2013-06-15 13:11:00,
2013-06-15 08:32:00,87.0,59.0,-100.00,SW,225,28.0,-999.0,39,-99.99,,,-99.99,,2013-06-15 13:32:00,
2013-06-15 08:43:00,87.0,59.0,-100.00,SW,225,28.0,-999.0,39,-99.99,,,-99.99,,2013-06-15 13:43:00,
2013-06-15 08:53:00,85.0,59.0,-100.00,SW,225,37.0,-999.0,41,-99.99,,,-99.99,,2013-06-15 13:53:00,
2013-06-15 09:01:00,86.0,59.0,-100.00,West,270,26.0,-999.0,41,-99.99,,,-99.99,,2013-06-15 14:01:00,
2013-06-15 09:12:00,83.0,64.0,-100.00,West,270,15.0,-999.0,53,-99.99,,,-99.99,,2013-06-15 14:12:00,
2013-06-15 09:22:00,83.0,64.0,-100.00,West,270,15.0,-999.0,53,-99.99,,,-99.99,,2013-06-15 14:22:00,
2013-06-15 09:34:00,82.0,66.0,-100.00,WSW,248,10.0,-999.0,58,-99.99,,,-99.99,,2013-06-15 14:34:00,
2013-06-15 09:43:00,82.0,66.0,-100.00,WSW,248,10.0,-999.0,58,-99.99,,,-99.99,,2013-06-15 14:43:00,
2013-06-15 09:53:00,83.0,67.0,-100.00,WSW,248,11.0,-999.0,58,-99.99,,,-99.99,,2013-06-15 14:53:00,
2013-06-15 10:02:00,84.0,68.0,-100.00,WSW,248,9.0,-999.0,58,-99.99,,,-99.99,,2013-06-15 15:02:00,
2013-06-15 10:11:00,84.0,68.0,-100.00,WSW,248,9.0,-999.0,58,-99.99,,,-99.99,,2013-06-15 15:11:00,
2013-06-15 10:22:00,87.0,68.0,-100.00,WSW,248,11.0,-999.0,53,-99.99,,,-99.99,,2013-06-15 15:22:00,
2013-06-15 11:01:00,87.0,68.0,-100.00,WSW,248,13.0,-999.0,53,-99.99,,,-99.99,,2013-06-15 16:01:00,
2013-06-15 11:11:00,87.0,68.0,-100.00,WSW,248,13.0,-999.0,53,-99.99,,,-99.99,,2013-06-15 16:11:00,
2013-06-15 11:22:00,87.0,68.0,-100.00,WSW,248,16.0,-999.0,52,-99.99,,,-99.99,,2013-06-15 16:22:00,
2013-06-15 11:33:00,87.0,66.0,-100.00,WSW,248,15.0,-999.0,50,-99.99,,,-99.99,,2013-06-15 16:33:00,
2013-06-15 11:43:00,87.0,66.0,-100.00,WSW,248,15.0,-999.0,50,-99.99,,,-99.99,,2013-06-15 16:43:00,
2013-06-15 11:53:00,87.0,66.0,-100.00,West,270,16.0,-999.0,50,-99.99,,,-99.99,,2013-06-15 16:53:00,
2013-06-15 12:02:00,86.0,69.0,-100.00,WNW,293,11.0,-999.0,55,-99.99,,,-99.99,,2013-06-15 17:02:00,
2013-06-15 12:12:00,86.0,69.0,-100.00,WNW,293,11.0,-999.0,55,-99.99,,,-99.99,,2013-06-15 17:12:00,
2013-06-15 12:21:00,85.0,68.0,-100.00,WNW,293,11.0,-999.0,58,-99.99,,,-99.99,,2013-06-15 17:21:00,
2013-06-15 12:32:00,84.0,68.0,-100.00,West,270,9.0,-999.0,58,-99.99,,,-99.99,,2013-06-15 17:32:00,
2013-06-15 12:43:00,84.0,68.0,-100.00,West,270,9.0,-999.0,58,-99.99,,,-99.99,,2013-06-15 17:43:00,
2013-06-15 12:52:00,85.0,68.0,-100.00,West,270,8.0,-999.0,57,-99.99,,,-99.99,,2013-06-15 17:52:00,
2013-06-15 13:01:00,85.0,69.0,-100.00,WSW,248,9.0,-999.0,59,-99.99,,,-99.99,,2013-06-15 18:01:00,
2013-06-15 13:12:00,85.0,69.0,-100.00,WSW,248,9.0,-999.0,59,-99.99,,,-99.99,,2013-06-15 18:12:00,
2013-06-15 13:22:00,84.0,70.0,-100.00,West,270,5.0,-999.0,63,-99.99,,,-99.99,,2013-06-15 18:22:00,
2013-06-15 13:32:00,83.0,72.0,-100.00,West,270,9.0,-999.0,68,-99.99,,,-99.99,,2013-06-15 18:32:00,
2013-06-15 13:43:00,83.0,72.0,-100.00,West,270,9.0,-999.0,68,-99.99,,,-99.99,,2013-06-15 18:43:00,
2013-06-15 13:53:00,83.0,72.0,-100.00,West,270,6.0,-999.0,70,-99.99,,,-99.99,,2013-06-15 18:53:00,
2013-06-15 14:01:00,82.0,73.0,-100.00,WSW,248,11.0,-999.0,74,-99.99,,,-99.99,,2013-06-15 19:01:00,
2013-06-15 14:11:00,82.0,73.0,-100.00,WSW,248,11.0,-999.0,74,-99.99,,,-99.99,,2013-06-15 19:11:00,
2013-06-15 14:22:00,78.0,72.0,-100.00,SW,225,19.0,-999.0,79,-99.99,,,-99.99,,2013-06-15 19:22:00,
2013-06-15 14:33:00,75.0,70.0,-100.00,WSW,248,12.0,-999.0,83,-99.99,,,-99.99,,2013-06-15 19:33:00,
2013-06-15 14:43:00,75.0,70.0,-100.00,WSW,248,12.0,-999.0,83,-99.99,,,-99.99,,2013-06-15 19:43:00,
2013-06-15 14:52:00,75.0,71.0,-100.00,West,270,4.0,-999.0,86,-99.99,,,-99.99,,2013-06-15 19:52:00,
2013-06-15 15:02:00,75.0,71.0,-100.00,NW,315,2.0,-999.0,87,-99.99,,,-99.99,,2013-06-15 20:02:00,
2013-06-15 15:11:00,75.0,71.0,-100.00,NW,315,2.0,-999.0,87,-99.99,,,-99.99,,2013-06-15 20:11:00,
2013-06-15 15:22:00,76.0,72.0,-100.00,WNW,293,3.0,-999.0,87,-99.99,,,-99.99,,2013-06-15 20:22:00,
2013-06-15 15:33:00,76.0,72.0,-100.00,WNW,293,1.0,-999.0,87,-99.99,,,-99.99,,2013-06-15 20:33:00,
2013-06-15 15:43:00,76.0,72.0,-100.00,WNW,293,1.0,-999.0,87,-99.99,,,-99.99,,2013-06-15 20:43:00,
2013-06-15 15:52:00,75.0,70.0,-100.00,West,270,4.0,-999.0,85,-99.99,,,-99.99,,2013-06-15 20:52:00,
2013-06-15 16:01:00,75.0,71.0,-100.00,SE,135,4.0,-999.0,86,-99.99,,,-99.99,,2013-06-15 21:01:00,
2013-06-15 16:11:00,75.0,71.0,-100.00,SE,135,4.0,-999.0,86,-99.99,,,-99.99,,2013-06-15 21:11:00,
2013-06-15 16:22:00,78.0,73.0,-100.00,WSW,248,1.0,-999.0,84,-99.99,,,-99.99,,2013-06-15 21:22:00,
2013-06-15 16:33:00,78.0,72.0,-100.00,WNW,293,2.0,-999.0,80,-99.99,,,-99.99,,2013-06-15 21:33:00,
2013-06-15 16:42:00,78.0,72.0,-100.00,WNW,293,2.0,-999.0,80,-99.99,,,-99.99,,2013-06-15 21:42:00,
2013-06-15 16:52:00,79.0,72.0,-100.00,WSW,248,0.0,-999.0,79,-99.99,,,-99.99,,2013-06-15 21:52:00,
2013-06-15 17:01:00,79.0,73.0,-100.00,ENE,68,1.0,-999.0,82,-99.99,,,-99.99,,2013-06-15 22:01:00,
2013-06-15 17:11:00,79.0,73.0,-100.00,ENE,68,1.0,-999.0,82,-99.99,,,-99.99,,2013-06-15 22:11:00,
2013-06-15 17:22:00,79.0,72.0,-100.00,ESE,113,2.0,-999.0,79,-99.99,,,-99.99,,2013-06-15 22:22:00,
2013-06-15 17:32:00,80.0,74.0,-100.00,SE,135,6.0,-999.0,80,-99.99,,,-99.99,,2013-06-15 22:32:00,
2013-06-15 17:42:00,80.0,74.0,-100.00,SE,135,6.0,-999.0,80,-99.99,,,-99.99,,2013-06-15 22:42:00,
2013-06-15 17:53:00,80.0,72.0,-100.00,SE,135,7.0,-999.0,77,-99.99,,,-99.99,,2013-06-15 22:53:00,
2013-06-15 18:02:00,80.0,73.0,-100.00,SSE,158,6.0,-999.0,78,-99.99,,,-99.99,,2013-06-15 23:02:00,
2013-06-15 18:11:00,80.0,73.0,-100.00,SSE,158,6.0,-999.0,78,-99.99,,,-99.99,,2013-06-15 23:11:00,
2013-06-15 18:22:00,80.0,73.0,-100.00,South,180,7.0,-999.0,79,-99.99,,,-99.99,,2013-06-15 23:22:00,
2013-06-15 18:33:00,79.0,72.0,-100.00,SSE,158,8.0,-999.0,79,-99.99,,,-99.99,,2013-06-15 23:33:00,
2013-06-15 18:42:00,79.0,72.0,-100.00,SSE,158,8.0,-999.0,79,-99.99,,,-99.99,,2013-06-15 23:42:00,
2013-06-15 18:53:00,80.0,71.0,-100.00,SSE,158,6.0,-999.0,75,-99.99,,,-99.99,,2013-06-15 23:53:00,
2013-06-15 19:01:00,79.0,71.0,-100.00,ESE,113,4.0,-999.0,75,-99.99,,,-99.99,,2013-06-16 00:01:00,
2013-06-15 19:11:00,79.0,71.0,-100.00,ESE,113,4.0,-999.0,75,-99.99,,,-99.99,,2013-06-16 00:11:00,
2013-06-15 19:22:00,79.0,70.0,-100.00,SE,135,4.0,-999.0,75,-99.99,,,-99.99,,2013-06-16 00:22:00,
2013-06-15 19:33:00,79.0,71.0,-100.00,SSE,158,4.0,-999.0,77,-99.99,,,-99.99,,2013-06-16 00:33:00,
2013-06-15 19:43:00,79.0,71.0,-100.00,SSE,158,4.0,-999.0,77,-99.99,,,-99.99,,2013-06-16 00:43:00,
2013-06-15 19:52:00,79.0,71.0,-100.00,SE,135,6.0,-999.0,76,-99.99,,,-99.99,,2013-06-16 00:52:00,
2013-06-15 20:01:00,78.0,71.0,-100.00,SE,135,7.0,-999.0,77,-99.99,,,-99.99,,2013-06-16 01:01:00,
2013-06-15 20:11:00,78.0,71.0,-100.00,SE,135,7.0,-999.0,77,-99.99,,,-99.99,,2013-06-16 01:11:00,
2013-06-15 20:22:00,78.0,71.0,-100.00,SE,135,7.0,-999.0,80,-99.99,,,-99.99,,2013-06-16 01:22:00,
2013-06-15 20:33:00,77.0,72.0,-100.00,SE,135,5.0,-999.0,82,-99.99,,,-99.99,,2013-06-16 01:33:00,
2013-06-15 20:42:00,77.0,72.0,-100.00,SE,135,5.0,-999.0,82,-99.99,,,-99.99,,2013-06-16 01:42:00,
2013-06-15 20:53:00,77.0,71.0,-100.00,SSE,158,9.0,-999.0,82,-99.99,,,-99.99,,2013-06-16 01:53:00,
2013-06-15 21:01:00,77.0,71.0,-100.00,SE,135,4.0,-999.0,83,-99.99,,,-99.99,,2013-06-16 02:01:00,
2013-06-15 21:12:00,77.0,71.0,-100.00,SE,135,4.0,-999.0,83,-99.99,,,-99.99,,2013-06-16 02:12:00,
2013-06-15 21:22:00,76.0,71.0,-100.00,ESE,113,4.0,-999.0,86,-99.99,,,-99.99,,2013-06-16 02:22:00,
2013-06-15 21:33:00,75.0,71.0,-100.00,ESE,113,3.0,-999.0,88,-99.99,,,-99.99,,2013-06-16 02:33:00,
2013-06-15 21:43:00,75.0,71.0,-100.00,ESE,113,3.0,-999.0,88,-99.99,,,-99.99,,2013-06-16 02:43:00,
2013-06-15 21:53:00,74.0,71.0,-100.00,ESE,113,4.0,-999.0,90,-99.99,,,-99.99,,2013-06-16 02:53:00,
2013-06-15 22:02:00,74.0,71.0,-100.00,ESE,113,3.0,-999.0,92,-99.99,,,-99.99,,2013-06-16 03:02:00,
2013-06-15 22:11:00,74.0,71.0,-100.00,ESE,113,3.0,-999.0,92,-99.99,,,-99.99,,2013-06-16 03:11:00,
2013-06-15 22:22:00,73.0,71.0,-100.00,East,90,2.0,-999.0,93,-99.99,,,-99.99,,2013-06-16 03:22:00,
2013-06-15 22:33:00,73.0,71.0,-100.00,NNE,23,1.0,-999.0,94,-99.99,,,-99.99,,2013-06-16 03:33:00,
2013-06-15 22:43:00,73.0,71.0,-100.00,NNE,23,1.0,-999.0,94,-99.99,,,-99.99,,2013-06-16 03:43:00,
2013-06-15 22:53:00,73.0,71.0,-100.00,NE,45,2.0,-999.0,94,-99.99,,,-99.99,,2013-06-16 03:53:00,
2013-06-15 23:02:00,72.0,71.0,-100.00,East,90,2.0,-999.0,95,-99.99,,,-99.99,,2013-06-16 04:02:00,
2013-06-15 23:12:00,72.0,71.0,-100.00,East,90,2.0,-999.0,95,-99.99,,,-99.99,,2013-06-16 04:12:00,
2013-06-15 23:23:00,71.0,70.0,-100.00,East,90,2.0,-999.0,96,-99.99,,,-99.99,,2013-06-16 04:23:00,
2013-06-15 23:33:00,71.0,70.0,-100.00,East,90,2.0,-999.0,96,-99.99,,,-99.99,,2013-06-16 04:33:00,
2013-06-15 23:42:00,71.0,70.0,-100.00,East,90,2.0,-999.0,96,-99.99,,,-99.99,,2013-06-16 04:42:00,
2013-06-15 23:53:00,71.0,70.0,-100.00,ENE,68,1.0,-999.0,97,-99.99,,,-99.99,,2013-06-16 04:53:00,